createdAt,value
2023-05-14T00:01:52.160Z,65.26
2023-05-14T00:04:19.682Z,66.39
2023-05-14T00:06:46.067Z,66.40
2023-05-14T00:09:13.120Z,66.46
2023-05-14T00:11:39.540Z,66.33
2023-05-14T00:14:05.959Z,66.54
2023-05-14T00:16:32.375Z,66.51
2023-05-14T00:18:58.767Z,66.11
2023-05-14T00:21:25.190Z,65.45
2023-05-14T00:23:51.589Z,66.63
2023-05-14T00:26:17.967Z,66.60
2023-05-14T00:28:44.876Z,65.98
2023-05-14T00:31:11.272Z,65.99
2023-05-14T00:33:37.686Z,65.50
2023-05-14T00:36:04.144Z,65.49
2023-05-14T00:38:30.511Z,66.16
2023-05-14T00:40:56.941Z,66.06
2023-05-14T00:43:23.377Z,67.25
2023-05-14T00:45:49.745Z,67.55
2023-05-14T00:48:16.119Z,67.17
2023-05-14T00:50:42.510Z,68.00
2023-05-14T00:53:10.374Z,68.45
2023-05-14T00:55:36.807Z,68.73
2023-05-14T00:58:03.188Z,67.49
2023-05-14T01:00:29.743Z,65.88
2023-05-14T01:02:56.213Z,65.10
2023-05-14T01:05:22.689Z,66.94
2023-05-14T01:07:49.289Z,66.77
2023-05-14T01:10:15.906Z,68.66
2023-05-14T01:12:42.256Z,69.43
2023-05-14T01:15:09.152Z,68.14
2023-05-14T01:17:35.596Z,67.00
2023-05-14T01:20:01.993Z,68.39
2023-05-14T01:22:28.368Z,67.68
2023-05-14T01:24:54.714Z,69.03
2023-05-14T01:27:21.183Z,67.80
2023-05-14T01:29:47.582Z,67.40
2023-05-14T01:32:14.000Z,67.67
2023-05-14T01:34:41.853Z,67.67
2023-05-14T01:37:08.244Z,67.87
2023-05-14T01:39:34.662Z,66.48
2023-05-14T01:42:01.108Z,66.55
2023-05-14T01:44:27.794Z,66.61
2023-05-14T01:46:54.195Z,65.57
2023-05-14T01:49:20.756Z,65.32
2023-05-14T01:51:47.156Z,66.32
2023-05-14T01:54:13.515Z,66.44
2023-05-14T01:56:39.954Z,68.56
2023-05-14T01:59:06.312Z,69.12
2023-05-14T02:01:33.884Z,71.98
2023-05-14T02:04:01.153Z,70.60
2023-05-14T02:06:27.606Z,71.55
2023-05-14T02:08:55.833Z,70.76
2023-05-14T02:11:22.337Z,69.75
2023-05-14T02:13:48.745Z,70.22
2023-05-14T02:16:15.213Z,70.46
2023-05-14T02:18:41.748Z,70.75
2023-05-14T02:21:08.166Z,70.20
2023-05-14T02:23:41.619Z,70.97
2023-05-14T02:26:09.966Z,71.95
2023-05-14T02:28:37.159Z,71.92
2023-05-14T02:31:03.622Z,72.65
2023-05-14T02:33:30.537Z,73.79
2023-05-14T02:35:56.974Z,73.31
2023-05-14T02:38:23.335Z,74.85
2023-05-14T02:40:49.690Z,74.95
2023-05-14T02:43:16.079Z,75.11
2023-05-14T02:45:42.877Z,74.26
2023-05-14T02:48:09.365Z,74.75
2023-05-14T02:50:35.725Z,74.14
2023-05-14T02:53:02.177Z,73.76
2023-05-14T02:55:28.570Z,73.49
2023-05-14T02:57:55.005Z,75.49
2023-05-14T03:00:21.776Z,74.86
2023-05-14T03:02:48.724Z,75.64
2023-05-14T03:05:15.504Z,74.41
2023-05-14T03:07:41.877Z,73.39
2023-05-14T03:10:08.302Z,72.64
2023-05-14T03:12:34.763Z,73.99
2023-05-14T03:15:01.211Z,73.86
2023-05-14T03:17:27.578Z,73.57
2023-05-14T03:19:53.976Z,73.11
2023-05-14T03:22:20.417Z,73.96
2023-05-14T03:24:47.418Z,73.84
2023-05-14T03:27:13.766Z,72.98
2023-05-14T03:29:40.137Z,72.26
2023-05-14T03:32:06.525Z,71.91
2023-05-14T03:34:32.880Z,72.94
2023-05-14T03:36:59.230Z,72.36
2023-05-14T03:39:25.607Z,72.80
2023-05-14T03:41:52.065Z,71.96
2023-05-14T03:44:18.537Z,71.86
2023-05-14T03:46:44.959Z,72.14
2023-05-14T03:49:11.432Z,73.80
2023-05-14T03:51:37.925Z,74.52
2023-05-14T03:54:05.658Z,72.92
2023-05-14T03:56:32.487Z,72.54
2023-05-14T03:58:58.885Z,71.74
2023-05-14T04:01:25.469Z,71.63
2023-05-14T04:03:52.158Z,72.69
2023-05-14T04:06:18.766Z,72.55
2023-05-14T04:08:45.205Z,73.26
2023-05-14T04:11:11.568Z,69.77
2023-05-14T04:13:37.930Z,69.59
2023-05-14T04:16:04.345Z,68.40
2023-05-14T04:18:34.886Z,68.16
2023-05-14T04:21:01.759Z,68.58
2023-05-14T04:23:28.119Z,67.92
2023-05-14T04:25:54.529Z,67.96
2023-05-14T04:28:21.156Z,67.44
2023-05-14T04:30:47.498Z,67.21
2023-05-14T04:33:13.862Z,66.19
2023-05-14T04:35:40.210Z,65.58
2023-05-14T04:38:06.572Z,67.38
2023-05-14T04:40:33.005Z,66.79
2023-05-14T04:42:59.334Z,67.38
2023-05-14T04:45:26.501Z,67.31
2023-05-14T04:47:52.965Z,67.86
2023-05-14T04:50:19.377Z,66.57
2023-05-14T04:52:45.820Z,66.68
2023-05-14T04:55:12.183Z,66.89
2023-05-14T04:57:38.766Z,69.92
2023-05-14T05:00:09.646Z,66.57
2023-05-14T05:02:36.138Z,68.44
2023-05-14T05:05:02.647Z,71.00
2023-05-14T05:07:28.972Z,69.09
2023-05-14T05:09:55.366Z,68.80
2023-05-14T05:12:21.715Z,69.29
2023-05-14T05:14:48.036Z,68.80
2023-05-14T05:17:14.403Z,66.73
2023-05-14T05:19:44.220Z,65.61
2023-05-14T05:22:11.059Z,65.21
2023-05-14T05:24:37.592Z,65.45
2023-05-14T05:27:05.389Z,64.42
2023-05-14T05:29:32.062Z,65.12
2023-05-14T05:31:58.453Z,63.48
2023-05-14T05:34:24.825Z,64.39
2023-05-14T05:36:51.584Z,65.01
2023-05-14T05:39:17.938Z,63.18
2023-05-14T05:41:44.403Z,63.76
2023-05-14T05:44:10.736Z,62.84
2023-05-14T05:46:37.528Z,63.40
2023-05-14T05:49:03.907Z,63.87
2023-05-14T05:51:30.291Z,63.63
2023-05-14T05:53:56.644Z,61.79
2023-05-14T05:56:22.999Z,61.34
2023-05-14T05:58:51.174Z,61.71
2023-05-14T06:01:17.534Z,63.61
2023-05-14T06:03:44.849Z,63.53
2023-05-14T06:06:12.848Z,63.12
2023-05-14T06:08:42.132Z,62.07
2023-05-14T06:11:11.714Z,62.47
2023-05-14T06:13:38.265Z,62.58
2023-05-14T06:16:04.829Z,64.00
2023-05-14T06:18:31.244Z,63.65
2023-05-14T06:20:57.883Z,63.50
2023-05-14T06:23:24.341Z,63.30
2023-05-14T06:25:53.755Z,61.98
2023-05-14T06:28:20.186Z,61.32
2023-05-14T06:30:46.709Z,61.17
2023-05-14T06:33:13.801Z,60.36
2023-05-14T06:35:40.392Z,60.28
2023-05-14T06:38:06.795Z,60.36
2023-05-14T06:40:33.564Z,59.44
2023-05-14T06:43:00.038Z,59.22
2023-05-14T06:45:26.539Z,60.11
2023-05-14T06:47:53.130Z,60.06
2023-05-14T06:50:20.069Z,59.88
2023-05-14T06:52:46.935Z,59.80
2023-05-14T06:55:13.324Z,59.65
2023-05-14T06:57:40.820Z,59.71
2023-05-14T07:00:08.183Z,59.03
2023-05-14T07:02:34.724Z,58.44
2023-05-14T07:05:02.085Z,58.31
2023-05-14T07:07:28.668Z,57.92
2023-05-14T07:09:55.085Z,59.04
2023-05-14T07:12:21.476Z,57.13
2023-05-14T07:14:47.837Z,57.92
2023-05-14T07:17:14.338Z,57.15
2023-05-14T07:19:40.952Z,56.47
2023-05-14T07:22:07.378Z,55.43
2023-05-14T07:24:33.744Z,56.32
2023-05-14T07:27:02.639Z,57.57
2023-05-14T07:29:30.419Z,58.45
2023-05-14T07:31:57.040Z,56.89
2023-05-14T07:34:23.505Z,56.53
2023-05-14T07:36:50.289Z,56.31
2023-05-14T07:39:16.891Z,55.06
2023-05-14T07:41:43.428Z,55.51
2023-05-14T07:44:10.040Z,55.24
2023-05-14T07:46:38.025Z,54.32
2023-05-14T07:49:04.663Z,53.61
2023-05-14T07:51:34.488Z,52.98
2023-05-14T07:54:01.161Z,52.65
2023-05-14T07:56:27.760Z,51.88
2023-05-14T07:58:54.186Z,51.62
2023-05-14T08:01:20.920Z,51.92
2023-05-14T08:03:47.778Z,51.05
2023-05-14T08:06:14.950Z,50.45
2023-05-14T08:08:41.353Z,50.42
2023-05-14T08:11:07.942Z,50.61
2023-05-14T08:13:34.401Z,50.41
2023-05-14T08:16:00.813Z,50.22
2023-05-14T08:18:27.491Z,48.73
2023-05-14T08:20:53.980Z,50.16
2023-05-14T08:23:20.784Z,48.92
2023-05-14T08:25:47.322Z,50.01
2023-05-14T08:28:13.689Z,50.66
2023-05-14T08:30:40.235Z,51.69
2023-05-14T08:33:09.231Z,51.93
2023-05-14T08:35:35.703Z,52.71
2023-05-14T08:38:02.590Z,51.53
2023-05-14T08:40:29.029Z,51.10
2023-05-14T08:42:55.489Z,51.93
2023-05-14T08:45:22.034Z,52.32
2023-05-14T08:47:49.766Z,52.67
2023-05-14T08:50:22.764Z,52.69
2023-05-14T08:52:49.871Z,51.63
2023-05-14T08:55:16.270Z,51.48
2023-05-14T08:57:42.845Z,51.95
2023-05-14T09:00:13.111Z,50.65
2023-05-14T09:02:39.705Z,49.01
2023-05-14T09:05:08.992Z,50.56
2023-05-14T09:07:35.487Z,51.27
2023-05-14T09:10:02.502Z,50.97
2023-05-14T09:12:28.870Z,49.06
2023-05-14T09:14:55.288Z,46.52
2023-05-14T09:17:24.838Z,46.73
2023-05-14T09:19:53.133Z,46.27
2023-05-14T09:22:20.050Z,47.54
2023-05-14T09:24:46.586Z,46.36
2023-05-14T09:27:13.033Z,43.18
2023-05-14T09:29:41.906Z,43.45
2023-05-14T09:32:10.267Z,41.46
2023-05-14T09:34:39.758Z,41.88
2023-05-14T09:37:06.204Z,40.61
2023-05-14T09:39:32.590Z,39.57
2023-05-14T09:41:59.130Z,39.32
2023-05-14T09:44:25.841Z,38.36
2023-05-14T09:46:52.286Z,40.02
2023-05-14T09:49:18.783Z,38.27
2023-05-14T09:51:45.396Z,39.21
2023-05-14T09:54:11.899Z,40.00
2023-05-14T09:56:39.881Z,39.21
2023-05-14T09:59:06.371Z,38.41
2023-05-14T10:01:33.067Z,37.88
2023-05-14T10:03:59.770Z,37.40
2023-05-14T10:06:26.384Z,37.58
2023-05-14T10:08:52.809Z,37.92
2023-05-14T10:11:21.152Z,36.60
2023-05-14T10:13:47.547Z,36.21
2023-05-14T10:16:14.384Z,35.85
2023-05-14T10:18:41.134Z,36.54
2023-05-14T10:21:07.550Z,36.69
2023-05-14T10:23:34.057Z,37.21
2023-05-14T10:26:00.599Z,36.36
2023-05-14T10:28:27.103Z,36.57
2023-05-14T10:30:53.530Z,35.90
2023-05-14T10:33:19.980Z,34.76
2023-05-14T10:35:46.385Z,35.24
2023-05-14T10:38:12.753Z,35.58
2023-05-14T10:40:39.188Z,35.32
2023-05-14T10:43:05.934Z,33.70
2023-05-14T10:45:34.332Z,34.13
2023-05-14T10:48:00.957Z,33.32
2023-05-14T10:50:27.445Z,32.74
2023-05-14T10:52:55.278Z,33.04
2023-05-14T10:55:21.675Z,31.90
2023-05-14T10:57:48.148Z,32.05
2023-05-14T11:00:14.767Z,30.94
2023-05-14T11:02:41.346Z,27.71
2023-05-14T11:05:11.571Z,29.73
2023-05-14T11:07:38.112Z,30.58
2023-05-14T11:10:04.538Z,29.86
2023-05-14T11:12:31.158Z,30.88
2023-05-14T11:14:58.118Z,31.41
2023-05-14T11:17:24.940Z,29.89
2023-05-14T11:19:51.447Z,28.41
2023-05-14T11:22:18.425Z,27.99
2023-05-14T11:24:44.956Z,29.25
2023-05-14T11:27:11.355Z,29.81
2023-05-14T11:29:37.889Z,30.40
2023-05-14T11:32:04.455Z,30.53
2023-05-14T11:34:31.244Z,29.71
2023-05-14T11:36:57.674Z,29.61
2023-05-14T11:39:24.087Z,27.18
2023-05-14T11:41:50.475Z,28.48
2023-05-14T11:44:16.877Z,29.29
2023-05-14T11:46:43.303Z,29.37
2023-05-14T11:49:09.795Z,28.16
2023-05-14T11:51:36.445Z,26.92
2023-05-14T11:54:04.017Z,27.48
2023-05-14T11:56:30.544Z,27.99
2023-05-14T11:58:57.537Z,27.43
2023-05-14T12:01:24.118Z,27.42
2023-05-14T12:03:50.789Z,27.49
2023-05-14T12:06:17.177Z,28.29
2023-05-14T12:08:43.677Z,27.58
2023-05-14T12:11:10.176Z,27.15
2023-05-14T12:13:36.752Z,27.04
2023-05-14T12:16:03.508Z,26.99
2023-05-14T12:18:30.265Z,28.41
2023-05-14T12:20:56.953Z,28.86
2023-05-14T12:23:23.412Z,28.98
2023-05-14T12:25:49.824Z,28.71
2023-05-14T12:28:16.530Z,29.33
2023-05-14T12:30:43.071Z,27.96
2023-05-14T12:33:09.980Z,27.96
2023-05-14T12:35:37.000Z,28.53
2023-05-14T12:38:03.589Z,28.61
2023-05-14T12:40:30.264Z,28.54
2023-05-14T12:42:56.961Z,28.88
2023-05-14T12:45:23.640Z,29.22
2023-05-14T12:47:51.283Z,28.56
2023-05-14T12:50:17.806Z,28.66
2023-05-14T12:52:44.503Z,29.05
2023-05-14T12:55:10.937Z,32.86
2023-05-14T12:57:38.438Z,32.98
2023-05-14T13:00:07.110Z,32.18
2023-05-14T13:02:33.650Z,32.14
2023-05-14T13:05:09.869Z,32.18
2023-05-14T13:07:36.408Z,32.24
2023-05-14T13:10:05.508Z,31.10
2023-05-14T13:12:32.449Z,30.10
2023-05-14T13:14:58.868Z,29.60
2023-05-14T13:17:25.343Z,29.59
2023-05-14T13:19:51.780Z,29.25
2023-05-14T13:22:18.890Z,28.05
2023-05-14T13:24:45.741Z,28.65
2023-05-14T13:27:12.117Z,29.04
2023-05-14T13:29:38.577Z,28.58
2023-05-14T13:32:05.110Z,28.26
2023-05-14T13:34:31.669Z,29.11
2023-05-14T13:36:58.042Z,28.83
2023-05-14T13:39:27.217Z,28.43
2023-05-14T13:41:53.985Z,28.35
2023-05-14T13:44:20.689Z,28.25
2023-05-14T13:46:47.128Z,28.44
2023-05-14T13:49:13.602Z,28.61
2023-05-14T13:51:40.132Z,28.89
2023-05-14T13:54:06.860Z,29.05
2023-05-14T13:56:34.174Z,29.20
2023-05-14T13:59:00.677Z,30.13
2023-05-14T14:01:27.260Z,31.50
2023-05-14T14:03:53.800Z,32.09
2023-05-14T14:06:20.243Z,32.04
2023-05-14T14:08:46.736Z,30.70
2023-05-14T14:11:13.720Z,30.68
2023-05-14T14:13:40.161Z,30.58
2023-05-14T14:16:06.545Z,31.21
2023-05-14T14:18:32.975Z,31.47
2023-05-14T14:20:59.408Z,30.85
2023-05-14T14:23:25.791Z,30.61
2023-05-14T14:25:52.170Z,30.69
2023-05-14T14:28:19.008Z,30.04
2023-05-14T14:30:45.554Z,30.26
2023-05-14T14:33:11.979Z,29.97
2023-05-14T14:35:38.566Z,30.22
2023-05-14T14:38:04.920Z,30.42
2023-05-14T14:40:32.617Z,30.30
2023-05-14T14:42:59.185Z,30.69
2023-05-14T14:45:25.652Z,30.62
2023-05-14T14:47:52.484Z,30.79
2023-05-14T14:50:18.890Z,30.96
2023-05-14T14:52:47.840Z,30.41
2023-05-14T14:55:14.196Z,29.84
2023-05-14T14:57:40.666Z,30.28
2023-05-14T15:00:07.286Z,30.59
2023-05-14T15:02:34.123Z,30.08
2023-05-14T15:05:00.762Z,30.13
2023-05-14T15:07:27.201Z,30.05
2023-05-14T15:09:53.779Z,31.25
2023-05-14T15:12:20.120Z,33.22
2023-05-14T15:14:46.512Z,33.92
2023-05-14T15:17:13.030Z,34.46
2023-05-14T15:19:39.515Z,34.74
2023-05-14T15:22:05.872Z,35.00
2023-05-14T15:24:32.256Z,34.94
2023-05-14T15:26:58.606Z,34.63
2023-05-14T15:29:25.024Z,35.28
2023-05-14T15:31:51.424Z,35.66
2023-05-14T15:34:17.853Z,36.49
2023-05-14T15:36:44.223Z,36.75
2023-05-14T15:39:10.580Z,36.68
2023-05-14T15:41:37.044Z,37.16
2023-05-14T15:44:03.441Z,37.58
2023-05-14T15:46:30.523Z,37.81
2023-05-14T15:48:56.977Z,37.59
2023-05-14T15:51:23.343Z,37.38
2023-05-14T15:53:49.708Z,37.34
2023-05-14T15:56:16.585Z,37.15
2023-05-14T15:58:43.110Z,36.53
2023-05-14T16:01:09.484Z,33.72
2023-05-14T16:03:35.940Z,33.32
2023-05-14T16:06:02.436Z,33.60
2023-05-14T16:08:28.863Z,33.85
2023-05-14T16:10:55.214Z,33.23
2023-05-14T16:13:21.646Z,33.36
2023-05-14T16:15:48.223Z,35.68
2023-05-14T16:18:14.579Z,38.51
2023-05-14T16:20:41.548Z,38.63
2023-05-14T16:23:07.917Z,39.24
2023-05-14T16:25:34.690Z,39.89
2023-05-14T16:28:01.024Z,39.87
2023-05-14T16:30:27.369Z,39.88
2023-05-14T16:32:53.899Z,39.33
2023-05-14T16:35:20.675Z,39.60
2023-05-14T16:37:47.069Z,39.52
2023-05-14T16:40:13.491Z,39.80
2023-05-14T16:42:39.879Z,39.71
2023-05-14T16:45:06.309Z,39.13
2023-05-14T16:47:32.704Z,38.76
2023-05-14T16:49:59.090Z,39.05
2023-05-14T16:52:25.426Z,39.28
2023-05-14T16:54:51.794Z,38.83
2023-05-14T16:57:18.247Z,38.62
2023-05-14T16:59:44.657Z,38.53
2023-05-14T17:02:10.997Z,38.66
2023-05-14T17:04:40.861Z,38.93
2023-05-14T17:07:07.276Z,39.01
2023-05-14T17:12:00.051Z,39.38
2023-05-14T17:14:26.535Z,39.99
2023-05-14T17:16:52.854Z,40.20
2023-05-14T17:19:19.185Z,40.09
2023-05-14T17:21:45.552Z,38.65
2023-05-14T17:24:11.949Z,38.50
2023-05-14T17:26:38.317Z,38.47
2023-05-14T17:29:04.648Z,38.12
2023-05-14T17:31:31.243Z,37.74
2023-05-14T17:33:57.685Z,38.04
2023-05-14T17:36:24.200Z,37.90
2023-05-14T17:38:50.629Z,38.16
2023-05-14T17:41:16.960Z,38.58
2023-05-14T17:43:43.291Z,38.16
2023-05-14T17:46:09.837Z,37.84
2023-05-14T17:48:36.257Z,38.06
2023-05-14T17:51:02.600Z,38.34
2023-05-14T17:53:29.032Z,38.48
2023-05-14T17:55:55.470Z,38.22
2023-05-14T17:58:21.828Z,38.66
2023-05-14T18:00:48.727Z,38.71
2023-05-14T18:03:15.499Z,38.48
2023-05-14T18:05:42.128Z,38.43
2023-05-14T18:08:10.009Z,38.54
2023-05-14T18:10:36.386Z,38.89
2023-05-14T18:13:02.731Z,38.60
2023-05-14T18:15:31.417Z,38.73
2023-05-14T18:17:57.831Z,38.95
2023-05-14T18:20:24.202Z,38.76
2023-05-14T18:22:51.340Z,38.54
2023-05-14T18:25:18.253Z,38.59
2023-05-14T18:27:45.223Z,38.75
2023-05-14T18:30:12.233Z,38.54
2023-05-14T18:32:38.816Z,38.64
2023-05-14T18:35:07.758Z,38.65
2023-05-14T18:37:34.970Z,38.43
2023-05-14T18:40:01.386Z,38.22
2023-05-14T18:42:27.864Z,38.34
2023-05-14T18:44:54.220Z,38.26
2023-05-14T18:47:20.591Z,38.38
2023-05-14T18:49:47.158Z,38.40
2023-05-14T18:52:13.570Z,38.34
2023-05-14T18:54:39.966Z,38.55
2023-05-14T18:57:06.347Z,39.33
2023-05-14T18:59:32.676Z,40.33
2023-05-14T19:01:59.359Z,41.08
2023-05-14T19:04:26.705Z,40.82
2023-05-14T19:06:53.066Z,41.00
2023-05-14T19:09:21.077Z,41.94
2023-05-14T19:11:47.529Z,41.44
2023-05-14T19:14:14.228Z,41.43
2023-05-14T19:16:40.608Z,41.13
2023-05-14T19:19:07.081Z,41.08
2023-05-14T19:21:33.477Z,41.10
2023-05-14T19:24:00.347Z,40.89
2023-05-14T19:26:26.806Z,41.24
2023-05-14T19:28:58.405Z,40.72
2023-05-14T19:31:24.890Z,40.74
2023-05-14T19:33:53.204Z,40.39
2023-05-14T19:36:19.601Z,40.57
2023-05-14T19:38:46.267Z,40.57
2023-05-14T19:41:12.628Z,41.48
2023-05-14T19:43:38.989Z,41.61
2023-05-14T19:46:06.415Z,42.01
2023-05-14T19:48:33.571Z,42.95
2023-05-14T19:51:00.056Z,43.51
2023-05-14T19:53:29.721Z,43.37
2023-05-14T19:55:56.093Z,43.91
2023-05-14T19:58:22.437Z,43.93
2023-05-14T20:00:51.830Z,43.99
2023-05-14T20:03:18.634Z,44.62
2023-05-14T20:05:49.004Z,44.66
2023-05-14T20:08:17.208Z,44.65
2023-05-14T20:10:44.553Z,44.80
2023-05-14T20:13:10.967Z,45.01
2023-05-14T20:15:37.404Z,44.68
2023-05-14T20:18:03.812Z,44.28
2023-05-14T20:20:32.880Z,45.11
2023-05-14T20:22:59.850Z,44.87
2023-05-14T20:25:28.329Z,45.44
2023-05-14T20:27:55.270Z,44.89
2023-05-14T20:30:21.672Z,45.96
2023-05-14T20:32:48.102Z,46.17
2023-05-14T20:35:14.507Z,45.99
2023-05-14T20:37:41.277Z,45.81
2023-05-14T20:40:10.332Z,46.35
2023-05-14T20:42:36.987Z,46.38
2023-05-14T20:45:03.826Z,46.44
2023-05-14T20:47:31.927Z,46.64
2023-05-14T20:49:58.609Z,47.17
2023-05-14T20:52:24.977Z,47.29
2023-05-14T20:54:51.346Z,47.29
2023-05-14T20:57:17.746Z,47.42
2023-05-14T20:59:44.153Z,47.67
2023-05-14T21:02:10.827Z,47.64
2023-05-14T21:04:37.319Z,47.88
2023-05-14T21:07:03.857Z,48.14
2023-05-14T21:09:30.231Z,49.33
2023-05-14T21:11:56.578Z,48.63
2023-05-14T21:14:23.014Z,49.72
2023-05-14T21:16:49.476Z,51.37
2023-05-14T21:19:15.982Z,52.40
2023-05-14T21:21:42.528Z,52.46
2023-05-14T21:24:09.166Z,52.56
2023-05-14T21:26:36.823Z,53.61
2023-05-14T21:29:03.446Z,54.18
2023-05-14T21:31:29.821Z,54.56
2023-05-14T21:33:56.264Z,54.33
2023-05-14T21:36:22.594Z,54.24
2023-05-14T21:38:48.990Z,54.66
2023-05-14T21:41:15.518Z,55.73
2023-05-14T21:43:43.810Z,56.49
2023-05-14T21:46:10.272Z,56.20
2023-05-14T21:48:37.167Z,55.99
2023-05-14T21:51:04.064Z,56.86
2023-05-14T21:53:30.599Z,57.11
2023-05-14T21:55:56.944Z,59.82
2023-05-14T21:58:24.629Z,59.95
2023-05-14T22:00:51.620Z,62.04
2023-05-14T22:03:21.466Z,64.47
2023-05-14T22:05:49.175Z,63.40
2023-05-14T22:08:17.507Z,65.76
2023-05-14T22:10:44.194Z,66.76
2023-05-14T22:13:11.558Z,67.69
2023-05-14T22:15:37.988Z,68.16
2023-05-14T22:18:04.837Z,69.34
2023-05-14T22:20:31.258Z,68.91
2023-05-14T22:22:57.646Z,68.93
2023-05-14T22:25:24.257Z,69.79
2023-05-14T22:27:51.247Z,69.67
2023-05-14T22:30:17.806Z,69.85
2023-05-14T22:32:44.424Z,69.33
2023-05-14T22:35:11.607Z,70.88
2023-05-14T22:37:37.986Z,71.29
2023-05-14T22:40:05.679Z,72.16
2023-05-14T22:42:32.110Z,72.04
2023-05-14T22:44:58.636Z,70.69
2023-05-14T22:47:25.853Z,76.15
2023-05-14T22:49:52.585Z,78.71
2023-05-14T22:52:19.196Z,79.61
2023-05-14T22:54:45.759Z,80.08
2023-05-14T22:57:12.482Z,79.55
2023-05-14T22:59:39.780Z,80.24
2023-05-14T23:02:06.603Z,78.13
2023-05-14T23:04:33.439Z,79.34
2023-05-14T23:07:00.556Z,78.21
2023-05-14T23:09:27.096Z,75.30
2023-05-14T23:11:53.761Z,75.27
2023-05-14T23:14:20.416Z,77.28
2023-05-14T23:16:46.816Z,77.53
2023-05-14T23:19:13.522Z,77.34
2023-05-14T23:21:40.492Z,77.34
2023-05-14T23:24:07.922Z,74.71
2023-05-14T23:26:34.541Z,78.04
2023-05-14T23:29:01.037Z,78.01
2023-05-14T23:31:27.406Z,77.41
2023-05-14T23:33:54.213Z,77.54
2023-05-14T23:36:20.722Z,78.97
2023-05-14T23:38:47.209Z,79.22
2023-05-14T23:41:14.233Z,80.66
2023-05-14T23:43:43.603Z,80.71
2023-05-14T23:46:10.437Z,78.82
2023-05-14T23:48:37.100Z,78.41
2023-05-14T23:51:03.576Z,78.07
2023-05-14T23:53:33.452Z,77.80
2023-05-14T23:55:59.800Z,78.61
2023-05-14T23:58:26.325Z,79.51
